createdAt,value
2018-06-02T00:00:36.595Z,69.80
2018-06-02T00:04:39.246Z,68.40
2018-06-02T00:08:41.948Z,68.00
2018-06-02T00:12:44.603Z,69.00
2018-06-02T00:16:47.261Z,68.50
2018-06-02T00:20:50.641Z,68.80
2018-06-02T00:24:53.298Z,69.40
2018-06-02T00:28:56.728Z,69.30
2018-06-02T00:32:59.432Z,69.40
2018-06-02T00:37:02.115Z,69.30
2018-06-02T00:41:04.729Z,72.40
2018-06-02T00:45:07.381Z,71.10
2018-06-02T00:49:10.038Z,69.40
2018-06-02T00:53:12.696Z,69.70
2018-06-02T00:57:15.341Z,69.40
2018-06-02T01:01:18.010Z,69.70
2018-06-02T01:05:20.653Z,69.60
2018-06-02T01:09:23.311Z,69.10
2018-06-02T01:13:25.957Z,69.60
2018-06-02T01:17:28.943Z,70.00
2018-06-02T01:21:31.572Z,69.60
2018-06-02T01:25:35.052Z,69.40
2018-06-02T01:29:37.718Z,70.10
2018-06-02T01:33:40.369Z,69.80
2018-06-02T01:37:43.024Z,70.30
2018-06-02T01:41:45.643Z,70.90
2018-06-02T01:45:48.304Z,70.90
2018-06-02T01:49:50.958Z,69.40
2018-06-02T01:53:53.657Z,69.60
2018-06-02T01:57:56.314Z,71.80
2018-06-02T02:01:58.928Z,72.10
2018-06-02T02:06:01.582Z,70.50
2018-06-02T02:10:04.266Z,72.20
2018-06-02T02:14:06.966Z,70.10
2018-06-02T02:18:09.631Z,72.60
2018-06-02T02:22:13.015Z,71.00
2018-06-02T02:26:15.724Z,70.90
2018-06-02T02:30:19.193Z,72.00
2018-06-02T02:34:21.861Z,72.00
2018-06-02T02:38:25.295Z,71.20
2018-06-02T02:42:27.965Z,71.10
2018-06-02T02:46:30.624Z,71.70
2018-06-02T02:50:33.276Z,70.60
2018-06-02T02:54:35.936Z,70.80
2018-06-02T02:58:38.591Z,69.90
2018-06-02T03:02:41.263Z,69.90
2018-06-02T03:06:43.968Z,70.20
2018-06-02T03:10:46.641Z,70.30
2018-06-02T03:14:49.312Z,69.70
2018-06-02T03:18:51.968Z,69.90
2018-06-02T03:22:54.616Z,72.00
2018-06-02T03:26:57.278Z,73.30
2018-06-02T03:30:59.937Z,72.30
2018-06-02T03:35:02.589Z,72.30
2018-06-02T03:39:05.259Z,71.80
2018-06-02T03:43:08.647Z,73.30
2018-06-02T03:47:11.313Z,73.30
2018-06-02T03:51:13.986Z,72.20
2018-06-02T03:55:16.654Z,73.20
2018-06-02T03:59:19.324Z,75.20
2018-06-02T04:03:22.707Z,73.30
2018-06-02T04:07:25.361Z,73.40
2018-06-02T04:11:28.020Z,73.00
2018-06-02T04:15:30.672Z,72.90
2018-06-02T04:19:33.354Z,74.00
2018-06-02T04:23:35.979Z,73.10
2018-06-02T04:27:38.628Z,73.40
2018-06-02T04:31:41.334Z,73.80
2018-06-02T04:35:43.992Z,74.60
2018-06-02T04:39:46.653Z,72.70
2018-06-02T04:43:49.273Z,72.60
2018-06-02T04:47:52.737Z,73.90
2018-06-02T04:51:55.409Z,73.90
2018-06-02T04:55:58.838Z,73.20
2018-06-02T05:00:01.501Z,73.10
2018-06-02T05:04:04.902Z,74.40
2018-06-02T05:08:08.333Z,73.90
2018-06-02T05:12:11.024Z,73.90
2018-06-02T05:16:13.714Z,74.80
2018-06-02T05:20:16.377Z,74.10
2018-06-02T05:24:19.760Z,74.30
2018-06-02T05:28:22.423Z,74.30
2018-06-02T05:32:25.085Z,74.30
2018-06-02T05:36:27.745Z,72.90
2018-06-02T05:40:31.190Z,72.50
2018-06-02T05:44:34.594Z,72.40
2018-06-02T05:48:37.254Z,72.40
2018-06-02T05:52:40.672Z,72.80
2018-06-02T05:56:44.095Z,72.20
2018-06-02T06:00:46.749Z,72.10
2018-06-02T06:04:50.143Z,73.60
2018-06-02T06:08:52.798Z,73.50
2018-06-02T06:12:55.460Z,73.10
2018-06-02T06:16:58.111Z,74.30
2018-06-02T06:21:00.773Z,73.20
2018-06-02T06:25:03.396Z,73.50
2018-06-02T06:29:06.048Z,73.80
2018-06-02T06:33:08.723Z,72.80
2018-06-02T06:37:11.447Z,73.30
2018-06-02T06:41:14.099Z,73.10
2018-06-02T06:45:16.719Z,72.80
2018-06-02T06:49:19.373Z,72.60
2018-06-02T06:53:22.025Z,72.60
2018-06-02T06:57:25.448Z,72.90
2018-06-02T07:01:28.101Z,72.90
2018-06-02T07:05:30.716Z,73.10
2018-06-02T07:09:34.134Z,73.50
2018-06-02T07:13:36.788Z,73.50
2018-06-02T07:17:39.504Z,72.90
2018-06-02T07:21:42.969Z,73.20
2018-06-02T07:25:45.568Z,73.10
2018-06-02T07:29:48.235Z,72.30
2018-06-02T07:33:50.905Z,72.90
2018-06-02T07:37:53.575Z,73.00
2018-06-02T07:41:56.236Z,73.20
2018-06-02T07:45:58.903Z,72.30
2018-06-02T07:50:01.681Z,72.20
2018-06-02T07:54:04.283Z,72.70
2018-06-02T07:58:07.063Z,72.30
2018-06-02T08:02:10.496Z,72.10
2018-06-02T08:06:13.106Z,72.10
2018-06-02T08:14:21.619Z,71.50
2018-06-02T08:18:24.289Z,71.60
2018-06-02T08:22:27.721Z,71.90
2018-06-02T08:26:30.338Z,71.80
2018-06-02T08:30:33.018Z,71.80
2018-06-02T08:34:35.692Z,72.00
2018-06-02T08:38:38.373Z,71.70
2018-06-02T08:42:41.036Z,71.80
2018-06-02T08:46:44.417Z,72.30
2018-06-02T08:50:47.090Z,72.10
2018-06-02T08:54:49.765Z,71.60
2018-06-02T08:58:52.421Z,71.30
2018-06-02T09:02:55.846Z,72.00
2018-06-02T09:06:58.470Z,72.00
2018-06-02T09:11:01.142Z,71.80
2018-06-02T09:15:03.803Z,72.00
2018-06-02T09:19:06.468Z,72.70
2018-06-02T09:23:09.133Z,71.80
2018-06-02T09:27:11.759Z,70.90
2018-06-02T09:31:14.456Z,71.90
2018-06-02T09:35:17.131Z,72.50
2018-06-02T09:39:20.573Z,71.70
2018-06-02T09:43:23.220Z,71.70
2018-06-02T09:47:26.601Z,71.90
2018-06-02T09:51:29.256Z,71.80
2018-06-02T09:55:31.901Z,71.80
2018-06-02T09:59:35.312Z,71.70
2018-06-02T10:03:38.744Z,71.90
2018-06-02T10:07:41.356Z,71.90
2018-06-02T10:11:44.051Z,71.80
2018-06-02T10:15:46.707Z,71.80
2018-06-02T10:19:49.370Z,72.30
2018-06-02T10:23:52.840Z,72.40
2018-06-02T10:27:56.256Z,72.10
2018-06-02T10:31:58.925Z,72.00
2018-06-02T10:36:01.589Z,72.40
2018-06-02T10:40:04.271Z,71.80
2018-06-02T10:44:06.916Z,72.20
2018-06-02T10:48:09.529Z,72.40
2018-06-02T10:52:12.976Z,72.00
2018-06-02T10:56:15.680Z,72.00
2018-06-02T11:00:18.340Z,72.20
2018-06-02T11:04:20.993Z,73.90
2018-06-02T11:08:23.600Z,72.90
2018-06-02T11:12:27.022Z,72.60
2018-06-02T11:16:29.681Z,72.60
2018-06-02T11:20:32.333Z,72.60
2018-06-02T11:24:34.989Z,72.30
2018-06-02T11:28:37.606Z,72.10
2018-06-02T11:32:40.266Z,72.60
2018-06-02T11:36:42.929Z,72.70
2018-06-02T11:40:46.348Z,73.40
2018-06-02T11:44:49.777Z,72.30
2018-06-02T11:48:52.394Z,72.30
2018-06-02T11:52:55.057Z,72.20
2018-06-02T11:56:57.716Z,72.40
2018-06-02T12:01:01.189Z,72.60
2018-06-02T12:05:03.814Z,71.70
2018-06-02T12:09:07.190Z,71.90
2018-06-02T12:13:09.838Z,71.80
2018-06-02T12:17:12.489Z,71.60
2018-06-02T12:21:15.906Z,72.70
2018-06-02T12:25:18.559Z,72.60
2018-06-02T12:29:21.171Z,72.10
2018-06-02T12:33:23.857Z,72.70
2018-06-02T12:37:27.275Z,72.10
2018-06-02T12:41:30.694Z,71.70
2018-06-02T12:45:33.345Z,71.80
2018-06-02T12:49:35.972Z,71.90
2018-06-02T12:53:38.612Z,71.80
2018-06-02T12:57:41.321Z,71.90
2018-06-02T13:01:44.730Z,71.60
2018-06-02T13:05:48.140Z,71.30
2018-06-02T13:09:51.527Z,71.30
2018-06-02T13:13:54.185Z,71.30
2018-06-02T13:17:56.847Z,71.20
2018-06-02T13:21:59.501Z,70.90
2018-06-02T13:26:02.152Z,71.30
2018-06-02T13:30:04.758Z,70.80
2018-06-02T13:34:07.407Z,70.80
2018-06-02T13:38:10.070Z,71.10
2018-06-02T13:42:13.524Z,70.90
2018-06-02T13:46:16.169Z,70.80
2018-06-02T13:50:19.548Z,70.70
2018-06-02T13:54:22.196Z,70.70
2018-06-02T13:58:24.868Z,70.80
2018-06-02T14:02:27.522Z,71.00
2018-06-02T14:06:30.948Z,70.90
2018-06-02T14:10:34.318Z,71.10
2018-06-02T14:14:36.977Z,71.10
2018-06-02T14:18:39.695Z,70.80
2018-06-02T14:22:42.334Z,70.90
2018-06-02T14:26:44.984Z,70.60
2018-06-02T14:30:47.630Z,71.10
2018-06-02T14:34:50.287Z,71.90
2018-06-02T14:38:52.948Z,71.00
2018-06-02T14:42:55.609Z,71.20
2018-06-02T14:46:59.075Z,71.20
2018-06-02T14:51:01.689Z,71.20
2018-06-02T14:55:04.364Z,71.20
2018-06-02T14:59:07.033Z,70.90
2018-06-02T15:03:10.457Z,70.70
2018-06-02T15:07:13.108Z,70.60
2018-06-02T15:11:15.918Z,70.60
2018-06-02T15:15:19.339Z,70.50
2018-06-02T15:19:22.013Z,70.40
2018-06-02T15:23:25.431Z,70.20
2018-06-02T15:27:28.088Z,70.20
2018-06-02T15:31:30.713Z,69.90
2018-06-02T15:35:33.365Z,70.60
2018-06-02T15:39:36.020Z,70.00
2018-06-02T15:43:38.677Z,70.00
2018-06-02T15:47:41.336Z,69.80
2018-06-02T15:51:43.956Z,69.60
2018-06-02T15:55:46.616Z,69.10
2018-06-02T15:59:50.044Z,70.40
2018-06-02T16:03:52.703Z,69.60
2018-06-02T16:07:55.368Z,69.50
2018-06-02T16:11:57.987Z,70.30
2018-06-02T16:16:00.693Z,70.30
2018-06-02T16:20:04.110Z,69.60
2018-06-02T16:24:06.762Z,69.50
2018-06-02T16:28:09.424Z,69.50
2018-06-02T16:32:12.051Z,69.20
2018-06-02T16:36:15.463Z,69.40
2018-06-02T16:40:18.888Z,69.60
2018-06-02T16:44:21.552Z,69.60
2018-06-02T16:48:24.972Z,69.50
2018-06-02T16:52:28.363Z,69.50
2018-06-02T16:56:31.902Z,69.50
2018-06-02T17:00:34.570Z,70.30
2018-06-02T17:04:37.987Z,69.40
2018-06-02T17:08:40.713Z,69.40
2018-06-02T17:12:43.330Z,69.30
2018-06-02T17:16:45.991Z,69.30
2018-06-02T17:20:48.655Z,69.20
2018-06-02T17:24:51.357Z,69.00
2018-06-02T17:28:54.020Z,69.10
2018-06-02T17:32:56.643Z,69.20
2018-06-02T17:36:59.294Z,69.20
2018-06-02T17:41:02.712Z,69.10
2018-06-02T17:45:05.388Z,69.10
2018-06-02T17:49:08.069Z,69.10
2018-06-02T17:53:11.469Z,69.20
2018-06-02T17:57:14.889Z,69.10
2018-06-02T18:01:18.310Z,69.20
2018-06-02T18:05:20.975Z,69.20
2018-06-02T18:09:24.401Z,69.20
2018-06-02T18:13:27.023Z,69.10
2018-06-02T18:17:29.685Z,69.20
2018-06-02T18:21:32.339Z,69.30
2018-06-02T18:25:34.994Z,69.40
2018-06-02T18:29:37.648Z,69.30
2018-06-02T18:33:40.281Z,69.40
2018-06-02T18:37:42.937Z,69.30
2018-06-02T18:41:45.674Z,69.10
2018-06-02T18:45:48.341Z,69.30
2018-06-02T18:49:50.990Z,69.30
2018-06-02T18:53:53.597Z,69.20
2018-06-02T18:57:56.276Z,69.20
2018-06-02T19:01:58.924Z,69.30
2018-06-02T19:06:01.580Z,69.20
2018-06-02T19:10:04.231Z,69.30
2018-06-02T19:14:06.845Z,69.30
2018-06-02T19:18:09.505Z,70.10
2018-06-02T19:22:12.184Z,69.40
2018-06-02T19:26:15.604Z,69.50
2018-06-02T19:30:18.264Z,69.40
2018-06-02T19:34:20.890Z,69.40
2018-06-02T19:38:23.543Z,69.50
2018-06-02T19:42:26.962Z,69.60
2018-06-02T19:46:30.388Z,69.40
2018-06-02T19:50:33.061Z,69.50
2018-06-02T19:54:36.440Z,69.50
2018-06-02T19:58:39.093Z,69.40
2018-06-02T20:02:41.740Z,69.50
2018-06-02T20:06:45.173Z,69.60
2018-06-02T20:10:47.829Z,69.60
2018-06-02T20:14:51.215Z,69.60
2018-06-02T20:18:54.672Z,69.80
2018-06-02T20:22:57.329Z,69.60
2018-06-02T20:27:00.753Z,69.70
2018-06-02T20:31:03.462Z,69.60
2018-06-02T20:35:06.075Z,69.60
2018-06-02T20:39:08.750Z,69.70
2018-06-02T20:43:11.419Z,69.60
2018-06-02T20:47:14.080Z,69.80
2018-06-02T20:51:17.505Z,69.70
2018-06-02T20:55:20.117Z,69.70
2018-06-02T20:59:22.773Z,69.80
2018-06-02T21:03:25.448Z,69.80
2018-06-02T21:07:28.880Z,69.80
2018-06-02T21:11:31.537Z,69.70
2018-06-02T21:15:34.161Z,69.70
2018-06-02T21:19:36.822Z,69.80
2018-06-02T21:23:40.246Z,69.80
2018-06-02T21:27:42.915Z,69.80
2018-06-02T21:31:46.342Z,69.90
2018-06-02T21:35:49.039Z,69.70
2018-06-02T21:39:51.694Z,69.70
2018-06-02T21:43:54.360Z,69.80
2018-06-02T21:47:57.013Z,69.70
2018-06-02T21:51:59.677Z,69.80
2018-06-02T21:56:03.067Z,69.80
2018-06-02T22:00:05.728Z,69.80
2018-06-02T22:04:08.376Z,70.00
2018-06-02T22:08:11.041Z,70.00
2018-06-02T22:12:14.467Z,70.10
2018-06-02T22:16:17.101Z,70.10
2018-06-02T22:20:19.761Z,70.00
2018-06-02T22:24:22.420Z,70.00
2018-06-02T22:28:25.850Z,70.00
2018-06-02T22:32:28.519Z,70.00
2018-06-02T22:36:31.894Z,70.00
2018-06-02T22:40:34.554Z,70.00
2018-06-02T22:44:37.214Z,70.00
2018-06-02T22:48:39.874Z,70.00
2018-06-02T22:52:42.536Z,70.00
2018-06-02T22:56:45.153Z,70.20
2018-06-02T23:00:48.580Z,70.10
2018-06-02T23:04:51.271Z,70.00
2018-06-02T23:08:53.924Z,70.00
2018-06-02T23:12:56.584Z,70.10
2018-06-02T23:16:59.201Z,70.20
2018-06-02T23:21:01.873Z,70.00
2018-06-02T23:25:04.622Z,70.40
2018-06-02T23:29:07.327Z,70.30
2018-06-02T23:33:09.981Z,70.30
2018-06-02T23:37:13.402Z,70.70
2018-06-02T23:41:16.063Z,71.50
2018-06-02T23:45:19.495Z,71.50
2018-06-02T23:49:22.143Z,71.40
2018-06-02T23:53:24.865Z,70.70
2018-06-02T23:57:28.251Z,70.80
